Time;durP1;ratioP1;P1;durP2;ratioP2;P2;SDS_P1;SDS_P2;PMS_P1;PMS_P2;Temp;Humidity;BMP_temperature;BMP_pressure;BME280_temperature;BME280_humidity;BME280_pressure;Samples;Min_cycle;Max_cycle;Signal;HPM_P1;HPM_P2
2022/05/10 11:22:35;;;;;;;;;;;;;;;21.67;48.91;100556.91;5017602;28;1670;-93
2022/05/10 11:25:15;;;;;;;;;;;;;;;21.64;48.52;100550.06;5002243;28;1230;-93
2022/05/10 11:28:04;;;;;;;;;;;;;;;21.68;50.02;100550.19;5002198;28;1266;-93
2022/05/10 11:31:01;;;;;;;;;;;;;;;;;;;;;
2022/05/10 11:33:38;;;;;;;;;;;;;;;21.84;48.21;100545.47;5020250;28;904;-92
2022/05/10 11:36:05;;;;;;;;;;;;;;;21.89;46.42;100546.00;5001466;28;1122;-91
2022/05/10 11:38:46;;;;;;;;;;;;;;;21.77;49.06;100539.69;5017995;28;1495;-91
2022/05/10 11:41:30;;;;;;;;;;;;;;;21.67;48.07;100534.63;5020827;28;1266;-91
2022/05/10 11:44:09;;;;;;;;;;;;;;;21.55;47.65;100524.34;5038697;28;1309;-92
2022/05/10 11:46:53;;;;;;;;;;;;;;;21.55;48.98;100524.34;5007185;28;1495;-91
2022/05/10 11:49:40;;;;;;;;;;;;;;;21.53;48.78;100523.88;5018198;28;1948;-91
2022/05/10 11:52:43;;;;;;;;;;;;;;;21.69;48.11;100530.31;5017824;28;1123;-91
2022/05/10 11:55:31;;;;;;;;;;;;;;;21.77;48.50;100526.59;4940868;29;1546;-92
2022/05/10 11:58:12;;;;;;;;;;;;;;;21.98;46.76;100518.03;4998982;28;1233;-92
2022/05/10 12:00:51;;;;;;;;;;;;;;;;;;;;;
2022/05/10 12:03:35;;;;;;;;;;;;;;;22.31;45.83;100522.47;4999511;28;750;-91
2022/05/10 12:06:21;;;;;;;;;;;;;;;22.21;46.07;100519.03;5009007;28;1155;-92
2022/05/10 12:09:00;;;;;;;;;;;;;;;22.27;45.95;100514.03;5039619;28;1292;-92
2022/05/10 12:11:44;;;;;;;;;;;;;;;22.13;44.94;100513.63;5023185;28;1886;-92
2022/05/10 12:22:49;;;;;;;;;;;;;;;22.45;46.17;100489.38;5040110;28;624;-92
2022/05/10 12:25:34;;;;;;;;;;;;;;;22.59;47.29;100484.94;5037889;28;1252;-91
2022/05/10 12:28:07;;;;;;;;;;;;;;;22.75;43.37;100490.53;5041464;28;1385;-92
2022/05/10 12:30:33;;;;;;;;;;;;;;;22.62;43.17;100492.59;5024262;28;1957;-93
2022/05/10 12:33:19;;;;;;;;;;;;;;;22.49;44.19;100493.06;5006870;28;1516;-92
2022/05/10 12:35:45;;;;;;;;;;;;;;;22.39;44.90;100482.44;4997194;28;1338;-92
2022/05/10 12:38:30;;;;;;;;;;;;;;;22.56;46.06;100491.25;5014815;28;1328;-91
2022/05/10 12:41:01;;;;;;;;;;;;;;;22.59;43.69;100481.34;4998167;28;1171;-92
2022/05/10 12:43:34;;;;;;;;;;;;;;;22.59;43.98;100486.94;4998190;28;1347;-92
2022/05/10 12:46:19;;;;;;;;;;;;;;;22.66;42.44;100481.50;5015902;28;1501;-92
2022/05/10 12:48:50;;;;;;;;;;;;;;;22.77;42.76;100473.44;5017796;28;1242;-91
2022/05/10 12:51:29;;;;;;;;;;;;;;;22.77;43.10;100463.06;5017477;28;1965;-92
2022/05/10 12:54:11;;;;;;;;;;;;;;;22.78;43.42;100456.34;5018056;28;1352;-92
2022/05/10 12:56:46;;;;;;;;;;;;;;;22.94;43.22;100457.09;5017754;28;1206;-92
2022/05/10 12:59:16;;;;;;;;;;;;;;;23.02;41.09;100461.66;5017345;28;1296;-92
2022/05/10 13:01:42;;;;;;;;;;;;;;;23.16;41.98;100452.78;5017425;28;1203;-91
2022/05/10 13:04:15;;;;;;;;;;;;;;;23.37;41.20;100449.63;5017485;28;1173;-92
2022/05/10 13:06:44;;;;;;;;;;;;;;;23.53;41.51;100439.22;5010610;28;1786;-92
2022/05/10 13:09:30;;;;;;;;;;;;;;;23.61;41.64;100442.94;5027284;28;1974;-93
2022/05/10 13:12:03;;;;;;;;;;;;;;;23.57;41.45;100434.47;5018232;28;1188;-91
2022/05/10 13:14:30;;;;;;;;;;;;;;;23.68;41.35;100438.28;5036792;28;814;-92
2022/05/10 13:16:55;;;;;;;;;;;;;;;24.11;40.71;100427.88;5018035;28;1218;-92
2022/05/10 13:19:22;;;;;;;;;;;;;;;25.21;38.24;100427.59;5018035;28;1326;-92
2022/05/10 13:21:48;;;;;;;;;;;;;;;27.63;35.03;100424.75;5018815;28;1211;-92
2022/05/10 13:24:15;;;;;;;;;;;;;;;30.70;30.20;100409.97;5010914;28;1248;-91
2022/05/10 13:26:48;;;;;;;;;;;;;;;29.75;30.19;100416.38;4998069;28;1197;-90
2022/05/10 13:29:18;;;;;;;;;;;;;;;28.78;31.76;100410.31;5000760;28;1890;-92
2022/05/10 13:31:43;;;;;;;;;;;;;;;28.63;32.12;100411.53;4998565;28;1355;-91
2022/05/10 13:34:08;;;;;;;;;;;;;;;27.48;34.77;100403.34;4999067;28;1319;-90
2022/05/10 13:36:33;;;;;;;;;;;;;;;27.25;33.15;100386.03;4998217;28;1004;-91
2022/05/10 13:38:59;;;;;;;;;;;;;;;28.67;31.82;100386.19;4998105;28;1257;-90
2022/05/10 13:41:30;;;;;;;;;;;;;;;29.69;29.81;100385.75;4998278;28;1157;-90
2022/05/10 13:43:57;;;;;;;;;;;;;;;30.71;29.10;100385.34;5001998;28;1210;-90
2022/05/10 13:46:24;;;;;;;;;;;;;;;31.08;26.37;100373.22;5001765;28;1427;-90
2022/05/10 13:49:15;;;;;;;;;;;;;;;28.06;31.32;100372.16;4984320;28;1379;-91
2022/05/10 13:51:51;;;;;;;;;;;;;;;27.96;31.77;100370.13;5003066;28;1495;-90
2022/05/10 13:54:29;;;;;;;;;;;;;;;28.97;31.32;100376.03;5021456;28;1541;-90
2022/05/10 13:57:08;;;;;;;;;;;;;;;27.76;33.10;100364.09;5001956;28;1397;-90
2022/05/10 13:59:33;;;;;;;;;;;;;;;26.50;33.51;100374.41;5000906;28;1344;-90
2022/05/10 14:02:03;;;;;;;;;;;;;;;27.92;32.01;100366.50;5020511;28;1356;-90
2022/05/10 14:04:30;;;;;;;;;;;;;;;27.47;32.76;100356.78;5020693;28;1243;-91
2022/05/10 14:06:57;;;;;;;;;;;;;;;26.50;33.74;100362.34;5002365;28;1237;-90
2022/05/10 14:09:28;;;;;;;;;;;;;;;25.94;36.10;100358.72;5011098;28;1971;-90
2022/05/10 14:11:56;;;;;;;;;;;;;;;25.81;35.17;100343.38;4998607;28;1274;-90
2022/05/10 14:14:28;;;;;;;;;;;;;;;25.56;36.02;100347.91;5000677;28;1364;-90
2022/05/10 14:16:57;;;;;;;;;;;;;;;25.28;37.25;100342.81;4996873;28;1506;-90
2022/05/10 14:19:22;;;;;;;;;;;;;;;25.14;37.61;100349.06;4996210;28;1591;-90
2022/05/10 14:21:49;;;;;;;;;;;;;;;25.02;38.02;100356.91;5000797;28;1553;-91
2022/05/10 14:24:14;;;;;;;;;;;;;;;24.96;36.89;100348.06;4997946;28;1348;-90
2022/05/10 14:26:41;;;;;;;;;;;;;;;25.13;36.95;100341.03;4996715;28;1214;-90
2022/05/10 14:29:17;;;;;;;;;;;;;;;25.36;35.35;100333.28;4996273;28;1544;-89
2022/05/10 14:31:44;;;;;;;;;;;;;;;25.59;35.99;100335.97;4996899;28;1536;-90
2022/05/10 14:34:15;;;;;;;;;;;;;;;25.77;36.39;100331.34;4996278;28;1404;-91
2022/05/10 14:36:41;;;;;;;;;;;;;;;25.48;35.35;100332.22;4994997;28;1387;-90
2022/05/10 14:39:19;;;;;;;;;;;;;;;25.18;36.60;100321.88;5000434;28;1284;-90
2022/05/10 14:41:45;;;;;;;;;;;;;;;24.98;35.44;100322.47;4998664;28;1356;-90
2022/05/10 14:44:18;;;;;;;;;;;;;;;24.79;35.94;100323.41;5033590;28;1052;-90
2022/05/10 14:46:51;;;;;;;;;;;;;;;24.75;36.86;100311.38;4996217;28;1387;-90
2022/05/10 14:49:30;;;;;;;;;;;;;;;24.85;36.04;100310.66;5000719;28;1886;-90
2022/05/10 14:51:56;;;;;;;;;;;;;;;25.50;35.21;100311.03;5004741;28;1475;-93
2022/05/10 14:54:33;;;;;;;;;;;;;;;25.85;34.69;100309.78;5003704;28;1452;-93
2022/05/10 14:57:00;;;;;;;;;;;;;;;25.70;35.17;100297.59;5033810;28;1133;-90
2022/05/10 14:59:50;;;;;;;;;;;;;;;25.57;37.40;100299.06;5018614;28;1265;-91
2022/05/10 15:02:19;;;;;;;;;;;;;;;25.36;38.36;100304.47;5017421;28;1648;-90
2022/05/10 15:04:44;;;;;;;;;;;;;;;25.24;35.92;100297.16;5008087;28;1166;-90
2022/05/10 15:07:09;;;;;;;;;;;;;;;25.23;35.46;100299.16;5000392;28;1511;-91
2022/05/10 15:09:34;;;;;;;;;;;;;;;25.22;36.51;100305.13;4996518;28;1910;-90
2022/05/10 15:14:43;;;;;;;;;;;;;;;25.41;35.39;100292.91;5018570;28;1079;-90
2022/05/10 15:17:13;;;;;;;;;;;;;;;25.38;35.53;100288.06;4999683;28;1488;-91
2022/05/10 15:19:38;;;;;;;;;;;;;;;25.39;36.65;100284.09;5006601;28;1304;-91
2022/05/10 15:22:04;;;;;;;;;;;;;;;25.25;37.63;100281.97;5019406;28;961;-90
2022/05/10 15:24:29;;;;;;;;;;;;;;;25.18;36.72;100281.88;5003312;28;1479;-91
2022/05/10 15:26:54;;;;;;;;;;;;;;;25.17;35.26;100280.28;5001181;28;1214;-90
2022/05/10 15:29:22;;;;;;;;;;;;;;;25.09;36.03;100268.19;5004040;28;1980;-90
2022/05/10 15:31:48;;;;;;;;;;;;;;;24.98;36.27;100266.47;5016875;28;1361;-90
2022/05/10 15:36:58;;;;;;;;;;;;;;;24.67;37.12;100250.88;5019152;28;1203;-90
2022/05/10 15:39:23;;;;;;;;;;;;;;;24.56;39.11;100258.34;4999509;28;1446;-91
2022/05/10 15:41:48;;;;;;;;;;;;;;;24.57;38.31;100255.16;4988903;28;1244;-90
2022/05/10 15:44:14;;;;;;;;;;;;;;;24.60;37.80;100256.38;4980126;28;838;-91
2022/05/10 15:46:42;;;;;;;;;;;;;;;24.62;37.39;100254.00;4980100;28;1377;-91
2022/05/10 15:49:08;;;;;;;;;;;;;;;24.59;36.75;100249.97;5001841;28;1899;-90
2022/05/10 15:51:33;;;;;;;;;;;;;;;24.59;37.23;100249.97;5000152;28;1890;-91
2022/05/10 15:53:58;;;;;;;;;;;;;;;24.56;36.09;100249.94;5018693;28;842;-90
2022/05/10 15:56:23;;;;;;;;;;;;;;;24.53;37.45;100251.50;5006583;28;846;-89
2022/05/10 15:58:49;;;;;;;;;;;;;;;24.59;36.77;100235.97;5016201;28;1472;-90
2022/05/10 16:01:14;;;;;;;;;;;;;;;24.65;36.84;100250.47;4998495;28;1302;-89
2022/05/10 16:03:40;;;;;;;;;;;;;;;24.63;38.07;100238.84;4998321;28;1708;-90
2022/05/10 16:06:07;;;;;;;;;;;;;;;24.66;37.43;100238.06;4998798;28;1300;-90
2022/05/10 16:08:32;;;;;;;;;;;;;;;24.61;37.36;100239.22;4998565;28;1772;-89
2022/05/10 16:10:57;;;;;;;;;;;;;;;24.58;38.03;100241.97;4997693;28;1875;-95
2022/05/10 16:13:22;;;;;;;;;;;;;;;24.43;38.96;100238.97;4996593;28;1296;-90
2022/05/10 16:15:48;;;;;;;;;;;;;;;24.54;37.08;100236.31;4979153;28;1198;-93
2022/05/10 16:18:17;;;;;;;;;;;;;;;24.74;36.90;100236.97;5006735;28;1468;-90
2022/05/10 16:20:43;;;;;;;;;;;;;;;24.87;37.68;100239.13;5000483;28;1618;-90
2022/05/10 16:23:08;;;;;;;;;;;;;;;24.85;36.92;100232.28;5007755;28;1269;-90
2022/05/10 16:25:34;;;;;;;;;;;;;;;24.88;37.96;100234.31;5015748;28;1258;-89
2022/05/10 16:30:46;;;;;;;;;;;;;;;25.15;38.99;100215.44;5019513;28;1901;-90
2022/05/10 16:33:11;;;;;;;;;;;;;;;24.98;38.61;100228.06;5009090;28;2084;-90
2022/05/10 16:35:38;;;;;;;;;;;;;;;24.84;39.00;100216.66;4999496;28;1299;-92
2022/05/10 16:38:03;;;;;;;;;;;;;;;24.96;37.21;100216.44;4995946;28;1374;-90
2022/05/10 16:40:29;;;;;;;;;;;;;;;24.95;36.95;100222.41;4998218;28;1331;-90
2022/05/10 16:42:54;;;;;;;;;;;;;;;24.72;35.58;100226.16;4996649;28;1535;-91
2022/05/10 16:45:20;;;;;;;;;;;;;;;24.68;34.73;100227.28;5005257;28;1170;-89
2022/05/10 16:47:45;;;;;;;;;;;;;;;24.56;37.56;100233.16;5017146;28;1213;-90
2022/05/10 16:50:11;;;;;;;;;;;;;;;24.44;35.96;100231.41;5017264;28;1955;-90
2022/05/10 16:52:39;;;;;;;;;;;;;;;24.41;36.54;100227.34;5017742;28;1268;-90
2022/05/10 16:55:05;;;;;;;;;;;;;;;24.52;35.93;100233.91;5017169;28;1320;-90
2022/05/10 16:57:30;;;;;;;;;;;;;;;24.47;36.26;100233.44;5017029;28;1327;-90
2022/05/10 16:59:55;;;;;;;;;;;;;;;24.44;35.83;100229.41;5017252;28;1209;-90
2022/05/10 17:02:21;;;;;;;;;;;;;;;24.59;36.72;100227.59;4999026;28;1266;-89
2022/05/10 17:04:48;;;;;;;;;;;;;;;24.46;35.42;100229.84;4997336;28;1213;-89
2022/05/10 17:07:13;;;;;;;;;;;;;;;24.39;37.27;100218.56;4993809;28;1510;-89
2022/05/10 17:09:39;;;;;;;;;;;;;;;24.31;37.42;100219.66;4993917;28;1910;-89
2022/05/10 17:12:04;;;;;;;;;;;;;;;24.25;35.68;100212.75;4990793;28;1024;-89
2022/05/10 17:14:29;;;;;;;;;;;;;;;24.26;37.99;100222.78;4995774;28;1301;-89
2022/05/10 17:16:54;;;;;;;;;;;;;;;24.21;38.20;100216.72;4996871;28;1167;-89
2022/05/10 17:19:20;;;;;;;;;;;;;;;24.38;38.00;100219.75;4997018;28;1283;-90
2022/05/10 17:21:46;;;;;;;;;;;;;;;24.61;37.43;100222.41;5002356;28;1327;-89
2022/05/10 17:24:11;;;;;;;;;;;;;;;25.12;37.13;100216.19;5015887;28;1259;-90
2022/05/10 17:26:38;;;;;;;;;;;;;;;25.12;37.60;100211.41;4996980;28;1172;-89
2022/05/10 17:29:08;;;;;;;;;;;;;;;24.96;38.91;100210.84;5016507;28;1561;-89
2022/05/10 17:31:34;;;;;;;;;;;;;;;24.83;39.08;100217.88;4997782;28;1961;-89
2022/05/10 17:34:00;;;;;;;;;;;;;;;24.71;38.42;100212.53;5013376;28;1680;-89
2022/05/10 17:36:26;;;;;;;;;;;;;;;24.66;38.86;100210.91;5009388;28;1459;-89
2022/05/10 17:38:51;;;;;;;;;;;;;;;24.70;39.14;100217.31;4993576;28;1252;-89
2022/05/10 17:41:19;;;;;;;;;;;;;;;24.88;38.77;100211.94;4985923;28;1256;-89
2022/05/10 17:43:45;;;;;;;;;;;;;;;24.86;40.07;100212.31;4993282;28;1546;-90
2022/05/10 17:46:11;;;;;;;;;;;;;;;24.92;40.63;100207.22;4995956;28;1244;-89
2022/05/10 17:48:38;;;;;;;;;;;;;;;24.81;43.72;100204.25;5006462;28;1341;-90
2022/05/10 17:51:05;;;;;;;;;;;;;;;24.77;44.33;100211.81;5000874;28;1890;-90
2022/05/10 17:53:31;;;;;;;;;;;;;;;24.47;44.82;100203.47;4995686;28;1476;-89
2022/05/10 17:55:56;;;;;;;;;;;;;;;24.21;38.14;100206.34;5016989;28;1205;-90
2022/05/10 17:58:22;;;;;;;;;;;;;;;24.13;40.54;100205.41;5004351;28;1329;-89
2022/05/10 18:00:47;;;;;;;;;;;;;;;23.86;45.46;100206.63;5010449;28;1289;-89
2022/05/10 18:03:12;;;;;;;;;;;;;;;23.66;46.53;100210.69;4995998;28;1350;-89
2022/05/10 18:05:37;;;;;;;;;;;;;;;23.59;46.41;100214.19;4994798;28;1416;-91
2022/05/10 18:08:02;;;;;;;;;;;;;;;23.43;47.75;100212.69;5017999;28;1428;-92
2022/05/10 18:10:28;;;;;;;;;;;;;;;23.25;49.77;100213.19;5000027;28;1976;-91
2022/05/10 18:12:54;;;;;;;;;;;;;;;23.12;49.73;100219.34;4982858;28;1215;-91
2022/05/10 18:15:19;;;;;;;;;;;;;;;23.00;52.87;100212.75;4978578;28;1253;-92
2022/05/10 18:17:44;;;;;;;;;;;;;;;22.83;52.34;100209.63;4983114;28;1284;-91
2022/05/10 18:20:10;;;;;;;;;;;;;;;22.48;51.81;100216.09;5017095;28;973;-91
2022/05/10 18:22:36;;;;;;;;;;;;;;;22.47;54.19;100219.25;5017791;28;1308;-91
2022/05/10 18:25:04;;;;;;;;;;;;;;;22.23;53.31;100221.16;5018988;28;1334;-93
2022/05/10 18:27:30;;;;;;;;;;;;;;;22.10;53.78;100221.66;5029703;28;1251;-92
2022/05/10 18:29:55;;;;;;;;;;;;;;;21.85;56.56;100221.06;5015788;28;1910;-92
2022/05/10 18:32:20;;;;;;;;;;;;;;;21.90;55.91;100212.41;5017683;28;1016;-92
2022/05/10 18:34:45;;;;;;;;;;;;;;;21.92;55.69;100215.66;5021793;28;1237;-93
2022/05/10 18:37:10;;;;;;;;;;;;;;;21.82;55.36;100219.00;5023104;28;1200;-93
2022/05/10 18:39:36;;;;;;;;;;;;;;;21.76;56.55;100214.88;5022556;28;1225;-93
2022/05/10 18:42:03;;;;;;;;;;;;;;;21.38;57.07;100223.91;5020957;28;1210;-92
2022/05/10 18:44:30;;;;;;;;;;;;;;;21.41;55.87;100212.84;5020681;28;1297;-91
2022/05/10 18:46:57;;;;;;;;;;;;;;;21.34;57.14;100217.44;5020363;28;1319;-91
2022/05/10 18:49:22;;;;;;;;;;;;;;;20.94;58.17;100223.09;5020050;28;1863;-92
2022/05/10 18:51:47;;;;;;;;;;;;;;;20.71;59.20;100229.25;5020426;28;1365;-91
2022/05/10 18:54:12;;;;;;;;;;;;;;;20.75;60.02;100227.41;5037789;28;829;-92
2022/05/10 18:56:38;;;;;;;;;;;;;;;20.95;59.51;100228.31;5020203;28;965;-92
2022/05/10 18:59:04;;;;;;;;;;;;;;;21.13;58.63;100220.44;5002552;28;1689;-92
2022/05/10 19:01:29;;;;;;;;;;;;;;;21.08;59.57;100220.72;5000417;28;1170;-92
2022/05/10 19:03:54;;;;;;;;;;;;;;;20.97;60.03;100222.41;5000289;28;1315;-92
2022/05/10 19:06:19;;;;;;;;;;;;;;;20.57;61.53;100228.88;5000334;28;1060;-92
2022/05/10 19:08:50;;;;;;;;;;;;;;;20.73;60.91;100231.69;4999987;28;1226;-92
2022/05/10 19:11:15;;;;;;;;;;;;;;;20.69;60.93;100231.59;5013738;28;1961;-91
2022/05/10 19:13:44;;;;;;;;;;;;;;;20.48;61.48;100236.56;5037396;28;949;-91
2022/05/10 19:16:09;;;;;;;;;;;;;;;20.53;61.19;100224.38;5019757;28;1221;-91
2022/05/10 19:18:48;;;;;;;;;;;;;;;20.52;61.20;100240.22;5019666;28;1306;-92
2022/05/10 19:21:13;;;;;;;;;;;;;;;20.49;61.51;100232.63;5019507;28;1162;-92
2022/05/10 19:23:43;;;;;;;;;;;;;;;20.47;61.13;100234.13;5020140;28;1364;-92
2022/05/10 19:26:15;;;;;;;;;;;;;;;20.46;61.33;100235.28;5020229;28;1190;-92
2022/05/10 19:28:44;;;;;;;;;;;;;;;20.43;61.36;100234.00;5019995;28;1408;-92
2022/05/10 19:31:13;;;;;;;;;;;;;;;20.42;61.53;100237.94;5019866;28;1973;-92
2022/05/10 19:33:40;;;;;;;;;;;;;;;20.35;61.43;100240.53;5019396;28;1339;-92
2022/05/10 19:36:05;;;;;;;;;;;;;;;20.30;62.09;100237.97;5020151;28;1303;-92
2022/05/10 19:38:35;;;;;;;;;;;;;;;20.26;61.90;100239.81;5021896;28;1357;-92
2022/05/10 19:41:08;;;;;;;;;;;;;;;20.23;62.34;100238.56;5021324;28;1305;-93
2022/05/10 19:43:35;;;;;;;;;;;;;;;20.22;62.11;100242.50;5029917;28;1206;-91
2022/05/10 19:46:07;;;;;;;;;;;;;;;20.17;62.14;100241.94;5032300;28;1259;-91
2022/05/10 19:48:33;;;;;;;;;;;;;;;20.16;62.54;100243.13;5030195;28;1279;-90
2022/05/10 19:50:58;;;;;;;;;;;;;;;20.14;62.35;100240.69;5031999;28;1945;-91
2022/05/10 19:53:23;;;;;;;;;;;;;;;20.14;62.07;100246.25;5009114;28;1214;-91
2022/05/10 19:55:48;;;;;;;;;;;;;;;20.09;62.19;100245.66;5031440;28;1248;-91
2022/05/10 19:58:14;;;;;;;;;;;;;;;20.13;62.04;100246.59;5029646;28;1257;-91
2022/05/10 20:00:39;;;;;;;;;;;;;;;20.09;62.07;100243.69;5033122;28;1024;-92
2022/05/10 20:05:48;;;;;;;;;;;;;;;20.13;62.19;100249.38;5051178;28;786;-91
2022/05/10 20:08:13;;;;;;;;;;;;;;;19.73;63.70;100252.09;5054242;28;1201;-90
2022/05/10 20:10:44;;;;;;;;;;;;;;;19.83;62.70;100246.03;5031715;28;1883;-91
2022/05/10 20:13:11;;;;;;;;;;;;;;;19.72;63.91;100242.13;5032379;28;1263;-91
2022/05/10 20:15:36;;;;;;;;;;;;;;;19.87;63.99;100249.75;5033194;28;1478;-91
2022/05/10 20:18:02;;;;;;;;;;;;;;;19.91;63.21;100248.69;5024321;28;1751;-91
2022/05/10 20:20:30;;;;;;;;;;;;;;;19.89;63.91;100247.44;5029555;28;1660;-91
2022/05/10 20:22:56;;;;;;;;;;;;;;;19.86;63.69;100248.94;5029742;28;1247;-90
2022/05/10 20:25:22;;;;;;;;;;;;;;;19.81;64.12;100245.59;5013630;28;1700;-91
2022/05/10 20:27:47;;;;;;;;;;;;;;;19.85;63.45;100247.31;5036736;28;1393;-90
2022/05/10 20:30:13;;;;;;;;;;;;;;;19.40;65.42;100246.59;5014739;28;1945;-91
2022/05/10 20:32:40;;;;;;;;;;;;;;;19.27;67.20;100251.31;5013091;28;1244;-92
2022/05/10 20:35:06;;;;;;;;;;;;;;;19.36;65.74;100254.00;5017657;28;1214;-90
2022/05/10 20:37:31;;;;;;;;;;;;;;;19.39;64.36;100250.53;5021402;28;1399;-91
2022/05/10 20:39:57;;;;;;;;;;;;;;;19.71;62.99;100251.63;5020304;28;1055;-90
2022/05/10 20:42:22;;;;;;;;;;;;;;;19.89;63.23;100251.03;5030760;28;1253;-90
2022/05/10 20:44:47;;;;;;;;;;;;;;;19.58;63.38;100251.59;5026849;28;1470;-91
2022/05/10 20:47:20;;;;;;;;;;;;;;;19.25;64.88;100256.41;5009564;28;1442;-90
2022/05/10 20:49:45;;;;;;;;;;;;;;;19.60;63.07;100252.06;5023966;28;1954;-89
2022/05/10 20:52:10;;;;;;;;;;;;;;;19.89;63.88;100256.59;5020624;28;1237;-90
2022/05/10 20:54:35;;;;;;;;;;;;;;;19.76;64.69;100248.59;5025352;28;1291;-90
2022/05/10 20:57:03;;;;;;;;;;;;;;;19.64;65.69;100264.13;5030686;28;1253;-90
2022/05/10 20:59:28;;;;;;;;;;;;;;;19.68;65.00;100253.09;5044827;28;1327;-90
2022/05/10 21:01:53;;;;;;;;;;;;;;;19.75;64.79;100246.97;5024698;28;1107;-90
2022/05/10 21:04:18;;;;;;;;;;;;;;;19.78;64.98;100252.66;5021993;28;1623;-90
2022/05/10 21:09:27;;;;;;;;;;;;;;;19.69;63.96;100256.69;5027474;28;1871;-89
2022/05/10 21:11:53;;;;;;;;;;;;;;;19.78;64.91;100257.41;5022269;28;1661;-90
2022/05/10 21:14:18;;;;;;;;;;;;;;;19.77;64.54;100258.53;5014182;28;1742;-90
2022/05/10 21:16:43;;;;;;;;;;;;;;;19.68;64.88;100267.00;5006060;28;1589;-90
2022/05/10 21:19:08;;;;;;;;;;;;;;;19.64;65.05;100264.13;5010435;28;1204;-91
2022/05/10 21:21:33;;;;;;;;;;;;;;;19.45;66.09;100271.34;5006415;28;1408;-90
2022/05/10 21:23:58;;;;;;;;;;;;;;;19.21;65.28;100284.03;5012558;28;1282;-90
2022/05/10 21:27:06;;;;;;;;;;;;;;;19.23;66.10;100283.69;5004866;28;1494;-90
2022/05/10 21:31:55;;;;;;;;;;;;;;;19.52;63.97;100288.28;5018933;28;1470;-90
2022/05/10 21:34:21;;;;;;;;;;;;;;;19.49;64.05;100288.97;5036498;28;1193;-90
2022/05/10 21:36:46;;;;;;;;;;;;;;;19.71;62.37;100291.31;5015830;28;1492;-91
2022/05/10 21:39:11;;;;;;;;;;;;;;;19.78;62.22;100290.72;5011166;28;1486;-90
2022/05/10 21:41:37;;;;;;;;;;;;;;;19.78;63.80;100285.16;5034539;28;1458;-90
2022/05/10 21:44:02;;;;;;;;;;;;;;;19.68;63.90;100280.06;5024391;28;1322;-90
2022/05/10 21:46:28;;;;;;;;;;;;;;;19.62;65.21;100282.28;5020885;28;1721;-90
2022/05/10 21:48:53;;;;;;;;;;;;;;;19.59;64.96;100291.28;5000575;28;1500;-90
2022/05/10 21:51:18;;;;;;;;;;;;;;;19.60;65.85;100292.91;5004205;28;1945;-90
2022/05/10 21:53:43;;;;;;;;;;;;;;;19.67;65.31;100293.13;5012595;28;1162;-90
2022/05/10 21:56:08;;;;;;;;;;;;;;;19.75;64.47;100283.06;5017829;28;1460;-90
2022/05/10 21:58:34;;;;;;;;;;;;;;;19.80;64.29;100283.66;4997774;28;1256;-89
2022/05/10 22:01:00;;;;;;;;;;;;;;;19.38;66.58;100285.81;4990936;28;1206;-90
2022/05/10 22:03:25;;;;;;;;;;;;;;;19.39;65.04;100281.06;4996705;28;1588;-90
2022/05/10 22:05:50;;;;;;;;;;;;;;;19.17;66.19;100276.72;4992849;28;1701;-90
2022/05/10 22:08:16;;;;;;;;;;;;;;;19.33;64.08;100274.91;5003556;28;1454;-90
2022/05/10 22:10:42;;;;;;;;;;;;;;;19.41;63.41;100281.50;5021059;28;1937;-90
2022/05/10 22:13:07;;;;;;;;;;;;;;;19.15;65.45;100282.63;5020146;28;1327;-90
2022/05/10 22:15:32;;;;;;;;;;;;;;;19.29;63.76;100282.31;5006171;28;1213;-90
2022/05/10 22:17:59;;;;;;;;;;;;;;;19.32;65.46;100281.63;5023724;28;1393;-90
2022/05/10 22:20:24;;;;;;;;;;;;;;;19.14;66.24;100283.00;5003558;28;1338;-89
2022/05/10 22:22:49;;;;;;;;;;;;;;;19.11;66.65;100280.88;5023964;28;1112;-90
2022/05/10 22:25:14;;;;;;;;;;;;;;;19.04;66.44;100286.19;5024794;28;1684;-89
2022/05/10 22:27:40;;;;;;;;;;;;;;;18.97;64.97;100286.72;5018798;28;1480;-90
2022/05/10 22:30:05;;;;;;;;;;;;;;;19.09;64.65;100284.00;5003520;28;1932;-90
2022/05/10 22:32:31;;;;;;;;;;;;;;;19.04;66.32;100287.00;5022002;28;1362;-90
2022/05/10 22:34:56;;;;;;;;;;;;;;;19.15;65.40;100279.84;5006204;28;1425;-90
2022/05/10 22:37:21;;;;;;;;;;;;;;;19.33;64.45;100279.66;5022143;28;1319;-89
2022/05/10 22:39:46;;;;;;;;;;;;;;;19.24;64.33;100283.34;5009555;28;1235;-90
2022/05/10 22:42:11;;;;;;;;;;;;;;;19.30;63.72;100280.34;5009064;28;1401;-90
2022/05/10 22:44:37;;;;;;;;;;;;;;;19.26;63.41;100285.78;5015084;28;1130;-89
2022/05/10 22:47:03;;;;;;;;;;;;;;;18.87;64.45;100281.63;5006622;28;1319;-90
2022/05/10 22:49:28;;;;;;;;;;;;;;;18.94;64.96;100289.38;5024557;28;1831;-91
2022/05/10 22:51:53;;;;;;;;;;;;;;;19.02;63.96;100286.53;5025490;28;1887;-90
2022/05/10 22:54:19;;;;;;;;;;;;;;;19.01;64.01;100284.91;5024487;28;1310;-90
2022/05/10 22:56:44;;;;;;;;;;;;;;;19.07;65.24;100274.38;5011400;28;1573;-90
2022/05/10 22:59:10;;;;;;;;;;;;;;;19.13;64.00;100278.59;5030213;28;1388;-89
2022/05/10 23:01:36;;;;;;;;;;;;;;;19.04;65.09;100278.69;5008663;28;1705;-89
2022/05/10 23:04:01;;;;;;;;;;;;;;;18.98;64.52;100279.22;5004135;28;1219;-90
2022/05/10 23:06:27;;;;;;;;;;;;;;;18.99;65.40;100281.66;5004091;28;1476;-89
2022/05/10 23:08:53;;;;;;;;;;;;;;;18.93;64.90;100273.91;5004074;28;1214;-90
2022/05/10 23:11:18;;;;;;;;;;;;;;;18.92;65.61;100280.59;5004507;28;1898;-89
2022/05/10 23:13:43;;;;;;;;;;;;;;;18.93;65.29;100285.00;5042107;28;1260;-90
2022/05/10 23:16:08;;;;;;;;;;;;;;;18.74;64.73;100288.25;5010245;28;1217;-90
2022/05/10 23:18:33;;;;;;;;;;;;;;;18.85;65.01;100284.75;5015168;28;1347;-90
2022/05/10 23:20:59;;;;;;;;;;;;;;;18.98;64.64;100296.66;5012237;28;1646;-90
2022/05/10 23:23:24;;;;;;;;;;;;;;;18.97;64.33;100295.03;5024218;28;1350;-89
2022/05/10 23:25:50;;;;;;;;;;;;;;;18.87;64.35;100282.44;5022182;28;1689;-90
2022/05/10 23:28:15;;;;;;;;;;;;;;;18.88;63.74;100278.50;5030291;28;1514;-89
2022/05/10 23:30:41;;;;;;;;;;;;;;;18.90;65.17;100283.69;5029729;28;1906;-90
2022/05/10 23:33:06;;;;;;;;;;;;;;;18.86;65.81;100283.59;5004463;28;1283;-88
2022/05/10 23:35:32;;;;;;;;;;;;;;;18.86;66.59;100277.22;5037498;28;1437;-90
2022/05/10 23:37:58;;;;;;;;;;;;;;;18.80;65.50;100264.72;5020534;28;1575;-91
2022/05/10 23:40:23;;;;;;;;;;;;;;;18.78;64.93;100253.16;5003713;28;1463;-89
2022/05/10 23:45:32;;;;;;;;;;;;;;;18.82;64.51;100254.09;5021031;28;1692;-90
2022/05/10 23:47:58;;;;;;;;;;;;;;;18.79;66.05;100254.78;5004143;28;1280;-90
2022/05/10 23:50:23;;;;;;;;;;;;;;;18.77;65.59;100249.59;5004286;28;1965;-89
2022/05/10 23:52:49;;;;;;;;;;;;;;;18.77;65.28;100243.22;5004214;28;1362;-89
2022/05/10 23:55:14;;;;;;;;;;;;;;;18.81;64.02;100252.47;5021835;28;1822;-89
2022/05/10 23:57:40;;;;;;;;;;;;;;;18.74;64.84;100241.94;5008207;28;1318;-90
